Time;durP1;ratioP1;P1;durP2;ratioP2;P2;SDS_P1;SDS_P2;PMS_P1;PMS_P2;Temp;Humidity;BMP_temperature;BMP_pressure;BME280_temperature;BME280_humidity;BME280_pressure;Samples;Min_cycle;Max_cycle;Signal;HPM_P1;HPM_P2
2021/01/17 00:00:35;;;;;;;12.43;6.10;;;0.30;99.90;;;;;;5044867;28;20660;-58
2021/01/17 00:03:01;;;;;;;11.93;5.75;;;0.30;99.90;;;;;;5046957;28;20036;-59
2021/01/17 00:05:29;;;;;;;15.40;6.55;;;0.30;99.90;;;;;;5048091;28;20431;-59
2021/01/17 00:07:55;;;;;;;19.65;5.78;;;0.30;99.90;;;;;;5047331;28;20029;-58
2021/01/17 00:10:23;;;;;;;10.88;5.35;;;0.30;99.90;;;;;;5046085;28;20495;-58
2021/01/17 00:12:50;;;;;;;11.43;5.35;;;0.30;99.90;;;;;;5048043;28;20044;-58
2021/01/17 00:15:16;;;;;;;14.85;5.63;;;0.20;99.90;;;;;;5047741;28;20524;-59
2021/01/17 00:17:43;;;;;;;18.92;7.07;;;0.20;99.90;;;;;;5052278;28;20037;-58
2021/01/17 00:20:18;;;;;;;17.58;7.53;;;0.20;99.90;;;;;;5049974;28;20132;-59
2021/01/17 00:22:44;;;;;;;13.23;6.55;;;0.20;99.90;;;;;;5050703;28;20060;-58
2021/01/17 00:25:12;;;;;;;14.10;6.80;;;0.20;99.90;;;;;;5051608;28;20037;-57
2021/01/17 00:27:38;;;;;;;10.60;5.60;;;0.20;99.90;;;;;;5050472;28;20032;-59
2021/01/17 00:30:06;;;;;;;12.13;6.18;;;0.20;99.90;;;;;;5050417;28;20087;-58
2021/01/17 00:32:32;;;;;;;13.73;5.90;;;0.20;99.90;;;;;;5032948;28;20133;-58
2021/01/17 00:34:58;;;;;;;12.18;6.40;;;0.20;99.90;;;;;;5051301;28;20219;-58
2021/01/17 00:37:23;;;;;;;14.45;5.63;;;0.20;99.90;;;;;;5049499;28;20029;-56
2021/01/17 00:39:49;;;;;;;12.50;6.05;;;0.30;99.90;;;;;;5048577;28;20495;-58
2021/01/17 00:42:16;;;;;;;11.70;6.00;;;0.30;99.90;;;;;;5049940;28;20041;-58
2021/01/17 00:44:43;;;;;;;16.52;7.10;;;0.40;99.90;;;;;;5051097;28;20059;-59
2021/01/17 00:47:15;;;;;;;12.57;6.20;;;0.40;99.90;;;;;;5051279;28;20032;-59
2021/01/17 00:49:44;;;;;;;13.35;6.78;;;0.40;99.90;;;;;;5050108;28;20036;-56
2021/01/17 00:52:17;;;;;;;12.85;6.38;;;0.40;99.90;;;;;;5051076;28;20492;-58
2021/01/17 00:54:43;;;;;;;13.00;5.75;;;0.40;99.90;;;;;;5050496;28;20347;-58
2021/01/17 00:57:09;;;;;;;11.95;5.97;;;0.30;99.90;;;;;;5049900;28;20342;-57
2021/01/17 00:59:34;;;;;;;17.38;8.27;;;0.30;99.90;;;;;;5049309;28;20032;-58
2021/01/17 01:02:02;;;;;;;16.70;7.15;;;0.30;99.90;;;;;;5050847;28;20477;-58
2021/01/17 01:04:28;;;;;;;16.45;7.65;;;0.30;99.90;;;;;;5050050;28;20124;-58
2021/01/17 01:06:54;;;;;;;14.75;6.50;;;0.20;99.90;;;;;;5050833;28;20110;-58
2021/01/17 01:09:20;;;;;;;11.52;5.72;;;0.30;99.90;;;;;;5048814;28;20025;-59
2021/01/17 01:11:47;;;;;;;11.55;5.80;;;0.20;99.90;;;;;;5047748;28;20039;-58
2021/01/17 01:14:13;;;;;;;13.98;6.75;;;0.20;99.90;;;;;;5050621;28;20548;-58
2021/01/17 01:16:39;;;;;;;11.48;6.28;;;0.20;99.90;;;;;;5049949;28;20124;-59
2021/01/17 01:19:05;;;;;;;13.50;5.05;;;0.20;99.90;;;;;;5049715;28;20043;-59
2021/01/17 01:21:32;;;;;;;15.23;5.95;;;0.20;99.90;;;;;;5050642;28;20037;-58
2021/01/17 01:23:58;;;;;;;11.70;5.97;;;0.20;99.90;;;;;;5048894;28;20032;-58
2021/01/17 01:26:25;;;;;;;10.32;5.50;;;0.20;99.90;;;;;;5050124;28;20554;-59
2021/01/17 01:28:56;;;;;;;12.52;5.82;;;0.10;99.90;;;;;;5048996;28;20082;-58
2021/01/17 01:31:25;;;;;;;14.82;6.18;;;0.10;99.90;;;;;;5050835;28;20036;-59
2021/01/17 01:33:52;;;;;;;10.30;5.30;;;0.10;99.90;;;;;;5049168;28;20032;-58
2021/01/17 01:36:23;;;;;;;11.85;5.40;;;0.10;99.90;;;;;;5050229;28;20040;-58
2021/01/17 01:38:50;;;;;;;11.70;5.38;;;0.10;99.90;;;;;;5049261;28;20035;-57
2021/01/17 01:41:16;;;;;;;11.55;5.53;;;0.10;99.90;;;;;;5050430;28;20041;-58
2021/01/17 01:43:44;;;;;;;11.48;5.63;;;0.10;99.90;;;;;;5048834;28;20583;-58
2021/01/17 01:46:21;;;;;;;17.15;5.60;;;0.10;99.90;;;;;;5050191;28;20036;-59
2021/01/17 01:48:48;;;;;;;13.35;6.20;;;0.10;99.90;;;;;;5049268;28;20037;-59
2021/01/17 01:51:19;;;;;;;11.75;5.72;;;0.10;99.90;;;;;;5050067;28;20352;-58
2021/01/17 01:53:45;;;;;;;9.88;5.22;;;0.10;99.90;;;;;;5048701;28;20346;-58
2021/01/17 01:56:13;;;;;;;10.38;5.25;;;0.10;99.90;;;;;;5048273;28;20388;-58
2021/01/17 01:58:40;;;;;;;11.98;5.93;;;0.10;99.90;;;;;;5049523;28;20037;-59
2021/01/17 02:01:07;;;;;;;14.27;6.35;;;0.10;99.90;;;;;;5049103;28;20040;-59
2021/01/17 02:03:33;;;;;;;11.43;5.57;;;0.10;99.90;;;;;;5046952;28;20123;-59
2021/01/17 02:06:00;;;;;;;10.10;5.65;;;0.10;99.90;;;;;;5048857;28;20021;-59
2021/01/17 02:08:35;;;;;;;9.65;5.55;;;0.20;99.90;;;;;;5048677;28;20110;-56
2021/01/17 02:11:41;;;;;;;10.27;5.18;;;0.20;99.90;;;;;;5048912;28;20401;-57
2021/01/17 02:14:15;;;;;;;10.43;5.68;;;0.10;99.90;;;;;;5047522;28;20041;-58
2021/01/17 02:16:43;;;;;;;9.93;5.15;;;0.10;99.90;;;;;;5049555;28;20120;-59
2021/01/17 02:19:11;;;;;;;12.05;5.90;;;0.10;99.90;;;;;;5048490;28;20068;-58
2021/01/17 02:21:41;;;;;;;19.23;5.63;;;0.20;99.90;;;;;;5048278;28;20112;-60
2021/01/17 02:24:11;;;;;;;13.10;6.30;;;0.20;99.90;;;;;;5043305;28;20047;-58
2021/01/17 02:26:40;;;;;;;9.43;5.32;;;0.10;99.90;;;;;;5048702;28;20111;-59
2021/01/17 02:29:08;;;;;;;12.45;5.90;;;0.20;99.90;;;;;;5029594;28;20033;-58
2021/01/17 02:31:36;;;;;;;11.18;5.72;;;0.20;99.90;;;;;;5028923;28;20036;-58
2021/01/17 02:34:04;;;;;;;11.75;5.38;;;0.20;99.90;;;;;;5029598;28;20400;-59
2021/01/17 02:36:52;;;;;;;11.93;6.15;;;0.20;99.90;;;;;;5049177;28;20035;-59
2021/01/17 02:39:40;;;;;;;15.95;6.47;;;0.20;99.90;;;;;;5049088;28;20397;-58
2021/01/17 02:42:06;;;;;;;10.80;5.57;;;0.20;99.90;;;;;;5097335;22;20500;-58
2021/01/17 02:44:33;;;;;;;10.73;5.63;;;0.20;99.90;;;;;;5014131;28;20132;-58
2021/01/17 02:47:00;;;;;;;14.02;6.95;;;0.20;99.90;;;;;;5008567;28;20041;-58
2021/01/17 02:49:27;;;;;;;14.00;5.57;;;0.20;99.90;;;;;;5009254;28;20477;-57
2021/01/17 02:51:53;;;;;;;15.27;5.45;;;0.20;99.90;;;;;;5008544;28;20038;-58
2021/01/17 02:54:29;;;;;;;15.80;6.05;;;0.10;99.90;;;;;;5007847;28;20040;-59
2021/01/17 02:57:01;;;;;;;12.27;5.30;;;0.10;99.90;;;;;;5007549;28;20045;-58
2021/01/17 02:59:41;;;;;;;11.23;5.80;;;0.10;99.90;;;;;;5009510;28;20065;-57
2021/01/17 03:02:07;;;;;;;15.23;6.05;;;0.10;99.90;;;;;;5008407;28;20033;-56
2021/01/17 03:04:44;;;;;;;11.20;6.13;;;0.10;99.90;;;;;;5006738;28;20781;-58
2021/01/17 03:07:13;;;;;;;14.95;5.88;;;0.10;99.90;;;;;;5008081;28;20578;-59
2021/01/17 03:09:40;;;;;;;12.75;5.30;;;0.00;99.90;;;;;;5008048;28;20030;-57
2021/01/17 03:12:06;;;;;;;16.00;6.20;;;0.10;99.90;;;;;;5009094;28;20034;-59
2021/01/17 03:14:35;;;;;;;13.98;5.68;;;0.10;99.90;;;;;;5008024;28;20037;-58
2021/01/17 03:17:03;;;;;;;10.23;5.75;;;0.10;99.90;;;;;;4990739;28;20038;-58
2021/01/17 03:19:29;;;;;;;11.65;5.22;;;0.10;99.90;;;;;;5009222;28;20057;-58
2021/01/17 03:21:54;;;;;;;11.27;5.53;;;0.10;99.90;;;;;;5006939;28;20058;-56
2021/01/17 03:24:20;;;;;;;9.57;5.15;;;0.10;99.90;;;;;;5009061;28;20447;-58
2021/01/17 03:26:46;;;;;;;11.38;5.47;;;0.10;99.90;;;;;;5007743;28;20457;-58
2021/01/17 03:29:11;;;;;;;11.48;5.32;;;0.00;99.90;;;;;;5007935;28;20038;-59
2021/01/17 03:31:37;;;;;;;13.40;5.85;;;0.00;99.90;;;;;;5007592;28;20125;-58
2021/01/17 03:34:03;;;;;;;14.32;5.93;;;0.00;99.90;;;;;;5008792;28;20116;-59
2021/01/17 03:36:28;;;;;;;14.73;5.50;;;0.00;99.90;;;;;;5007841;28;20117;-59
2021/01/17 03:38:54;;;;;;;10.57;5.20;;;0.10;99.90;;;;;;5007824;28;20034;-59
2021/01/17 03:41:22;;;;;;;14.55;5.93;;;0.00;99.90;;;;;;5007737;28;20430;-56
2021/01/17 03:43:47;;;;;;;16.85;6.60;;;0.00;99.90;;;;;;5008467;28;20058;-57
2021/01/17 03:46:13;;;;;;;12.82;5.65;;;0.00;99.90;;;;;;5007604;28;20038;-59
2021/01/17 03:48:39;;;;;;;15.13;5.25;;;0.00;99.90;;;;;;5008800;28;20119;-59
2021/01/17 03:51:04;;;;;;;8.73;4.85;;;0.00;99.90;;;;;;4994412;28;20117;-58
2021/01/17 03:53:30;;;;;;;10.70;4.90;;;0.00;99.90;;;;;;5012404;28;20057;-58
2021/01/17 03:55:56;;;;;;;11.27;4.97;;;0.00;99.90;;;;;;5008961;28;20050;-58
2021/01/17 03:58:21;;;;;;;10.57;4.72;;;0.00;99.90;;;;;;5011213;28;20041;-58
2021/01/17 04:00:47;;;;;;;11.40;4.88;;;0.00;99.90;;;;;;5012198;28;20038;-57
2021/01/17 04:03:14;;;;;;;14.52;5.63;;;-0.10;99.90;;;;;;5011316;28;20049;-57
2021/01/17 04:05:39;;;;;;;13.52;5.50;;;-0.10;99.90;;;;;;5012229;28;20037;-57
2021/01/17 04:08:05;;;;;;;15.98;6.35;;;-0.10;99.90;;;;;;5011059;28;20049;-58
2021/01/17 04:10:31;;;;;;;10.82;5.40;;;-0.10;99.90;;;;;;5012183;28;20034;-58
2021/01/17 04:12:57;;;;;;;9.00;4.90;;;-0.10;99.90;;;;;;5010992;28;20037;-59
2021/01/17 04:15:22;;;;;;;9.75;5.28;;;-0.10;99.90;;;;;;5011867;28;20038;-51
2021/01/17 04:17:48;;;;;;;11.93;5.10;;;-0.10;99.90;;;;;;5011210;28;20108;-58
2021/01/17 04:20:15;;;;;;;9.48;5.03;;;-0.10;99.90;;;;;;5011992;28;20069;-58
2021/01/17 04:22:41;;;;;;;11.82;5.00;;;-0.10;99.90;;;;;;5011026;28;20033;-57
2021/01/17 04:25:08;;;;;;;8.63;4.07;;;-0.10;99.90;;;;;;5011772;28;20025;-58
2021/01/17 04:27:34;;;;;;;10.85;4.80;;;-0.10;99.90;;;;;;5010633;28;20030;-59
2021/01/17 04:30:00;;;;;;;9.35;4.88;;;-0.20;99.90;;;;;;5010998;28;20561;-59
2021/01/17 04:32:25;;;;;;;10.90;4.72;;;-0.20;99.90;;;;;;4993267;28;20042;-59
2021/01/17 04:34:52;;;;;;;11.15;5.25;;;-0.20;99.90;;;;;;5011949;28;20049;-58
2021/01/17 04:37:22;;;;;;;9.95;5.28;;;-0.20;99.90;;;;;;5010649;28;20045;-58
2021/01/17 04:39:48;;;;;;;11.68;5.50;;;-0.20;99.90;;;;;;5011578;28;20492;-59
2021/01/17 04:42:18;;;;;;;13.00;5.90;;;-0.20;99.90;;;;;;5008479;28;20029;-58
2021/01/17 04:45:00;;;;;;;11.20;6.15;;;-0.30;99.90;;;;;;5010741;28;20034;-57
2021/01/17 04:47:27;;;;;;;13.07;5.43;;;-0.30;99.90;;;;;;4992328;28;20037;-58
2021/01/17 04:49:54;;;;;;;11.32;5.85;;;-0.30;99.90;;;;;;5008876;28;20037;-56
2021/01/17 04:52:28;;;;;;;9.43;5.15;;;-0.30;99.90;;;;;;5010554;28;20410;-57
2021/01/17 04:54:53;;;;;;;10.32;4.82;;;-0.30;99.90;;;;;;5009012;28;20489;-58
2021/01/17 04:57:45;;;;;;;9.73;4.97;;;-0.30;99.90;;;;;;5010376;28;20045;-58
2021/01/17 05:00:11;;;;;;;13.15;5.38;;;-0.30;99.90;;;;;;5010472;28;20041;-57
2021/01/17 05:02:49;;;;;;;10.80;4.80;;;-0.30;99.90;;;;;;5008843;28;20041;-57
2021/01/17 05:05:25;;;;;;;12.40;5.45;;;-0.30;99.90;;;;;;5011303;28;20042;-59
2021/01/17 05:07:51;;;;;;;12.07;5.57;;;-0.30;99.90;;;;;;5010687;28;20034;-56
2021/01/17 05:10:34;;;;;;;15.10;5.68;;;-0.30;99.90;;;;;;5011105;28;20543;-56
2021/01/17 05:13:11;;;;;;;10.93;5.30;;;-0.40;99.90;;;;;;5009022;28;20025;-58
2021/01/17 05:15:41;;;;;;;12.60;4.72;;;-0.30;99.90;;;;;;5010909;28;20091;-58
2021/01/17 05:18:08;;;;;;;11.73;5.38;;;-0.40;99.90;;;;;;5009915;28;20030;-58
2021/01/17 05:20:34;;;;;;;10.50;4.80;;;-0.40;99.90;;;;;;5008799;28;20117;-59
2021/01/17 05:23:00;;;;;;;10.23;4.82;;;-0.30;99.90;;;;;;5009752;28;20030;-58
2021/01/17 05:25:29;;;;;;;14.13;5.63;;;-0.40;99.90;;;;;;5010343;28;20523;-55
2021/01/17 05:27:58;;;;;;;11.50;6.00;;;-0.30;99.90;;;;;;5011869;28;20069;-59
2021/01/17 05:30:24;;;;;;;14.40;6.10;;;-0.40;99.90;;;;;;5009775;28;20474;-59
2021/01/17 05:32:51;;;;;;;15.70;6.72;;;-0.30;99.90;;;;;;5009720;28;20033;-58
2021/01/17 05:35:18;;;;;;;17.10;6.43;;;-0.30;99.90;;;;;;5009679;28;20060;-60
2021/01/17 05:37:52;;;;;;;11.18;5.35;;;-0.30;99.90;;;;;;5010679;28;20034;-59
2021/01/17 05:40:19;;;;;;;12.88;5.18;;;-0.30;99.90;;;;;;5010165;28;20061;-60
2021/01/17 05:42:47;;;;;;;12.05;5.38;;;-0.40;99.90;;;;;;5008783;28;20050;-56
2021/01/17 05:45:18;;;;;;;10.55;4.72;;;-0.30;99.90;;;;;;5009254;28;20175;-58
2021/01/17 05:47:55;;;;;;;12.40;5.90;;;-0.30;99.90;;;;;;5010726;28;20042;-59
2021/01/17 05:50:22;;;;;;;10.73;4.47;;;-0.30;99.90;;;;;;5009678;28;20038;-58
2021/01/17 05:52:56;;;;;;;12.13;5.10;;;-0.20;99.90;;;;;;5009398;28;20038;-58
2021/01/17 05:55:32;;;;;;;11.00;4.95;;;-0.30;99.90;;;;;;5010202;28;20497;-58
2021/01/17 05:58:24;;;;;;;9.35;5.13;;;-0.20;99.90;;;;;;5009044;28;20132;-58
2021/01/17 06:00:54;;;;;;;7.38;3.67;;;-0.30;99.90;;;;;;4999618;28;20034;-58
2021/01/17 06:03:32;;;;;;;10.00;4.45;;;-0.20;99.90;;;;;;5009198;28;20100;-58
2021/01/17 06:06:08;;;;;;;10.98;4.50;;;-0.20;99.90;;;;;;5008849;28;20045;-59
2021/01/17 06:08:34;;;;;;;8.35;4.30;;;-0.20;99.90;;;;;;5010049;28;20537;-58
2021/01/17 06:11:12;;;;;;;10.80;4.18;;;-0.30;99.90;;;;;;4991561;28;20107;-58
2021/01/17 06:13:40;;;;;;;9.05;4.63;;;-0.20;99.90;;;;;;5007728;28;20033;-58
2021/01/17 06:16:33;;;;;;;11.32;4.85;;;-0.20;99.90;;;;;;5008792;28;20042;-58
2021/01/17 06:19:06;;;;;;;10.70;4.70;;;-0.30;99.90;;;;;;5009747;28;20096;-58
2021/01/17 06:21:33;;;;;;;8.82;4.13;;;-0.50;99.90;;;;;;5008688;28;20042;-58
2021/01/17 06:24:06;;;;;;;12.10;5.20;;;-0.40;99.90;;;;;;5008026;28;20034;-58
2021/01/17 06:26:37;;;;;;;10.80;4.97;;;-0.20;99.90;;;;;;5009760;28;20429;-59
2021/01/17 06:29:07;;;;;;;11.80;5.28;;;-0.10;99.90;;;;;;5008539;28;20042;-58
2021/01/17 06:31:33;;;;;;;12.77;5.30;;;0.00;99.90;;;;;;5009892;28;20034;-59
2021/01/17 06:34:12;;;;;;;10.50;4.90;;;0.00;99.90;;;;;;5007326;28;20464;-58
2021/01/17 06:36:43;;;;;;;11.95;5.13;;;0.10;99.90;;;;;;5009586;28;20037;-57
2021/01/17 06:39:19;;;;;;;9.63;5.07;;;0.10;99.90;;;;;;5008499;28;20064;-58
2021/01/17 06:41:48;;;;;;;10.20;4.55;;;0.20;99.90;;;;;;5008317;28;20104;-58
2021/01/17 06:44:14;;;;;;;11.55;5.68;;;0.10;99.90;;;;;;4988705;28;20048;-58
2021/01/17 06:46:41;;;;;;;13.55;6.22;;;0.10;99.90;;;;;;4989772;28;20034;-58
2021/01/17 06:49:27;;;;;;;16.33;7.68;;;0.00;99.90;;;;;;4988692;28;20033;-56
2021/01/17 06:51:55;;;;;;;18.55;7.40;;;-0.10;99.90;;;;;;4979422;28;20038;-58
2021/01/17 06:54:23;;;;;;;14.27;6.95;;;-0.20;99.90;;;;;;4988659;28;20039;-58
2021/01/17 06:56:50;;;;;;;16.98;8.38;;;-0.20;99.90;;;;;;4989048;28;20050;-58
2021/01/17 06:59:34;;;;;;;16.77;8.30;;;-0.30;99.90;;;;;;4988429;28;20039;-56
2021/01/17 07:04:54;;;;;;;15.90;8.43;;;-0.30;99.90;;;;;;4988365;28;20049;-56
2021/01/17 07:07:50;;;;;;;13.55;7.45;;;-0.20;99.90;;;;;;4989209;28;20294;-59
2021/01/17 07:10:20;;;;;;;13.60;6.90;;;-0.20;99.90;;;;;;4988403;28;20138;-58
2021/01/17 07:12:56;;;;;;;13.15;6.05;;;-0.10;99.90;;;;;;4989370;28;20049;-57
2021/01/17 07:15:30;;;;;;;11.68;6.22;;;0.00;99.90;;;;;;4988501;28;20100;-58
2021/01/17 07:18:11;;;;;;;9.35;5.68;;;-0.10;99.90;;;;;;4985471;28;20042;-58
2021/01/17 07:20:44;;;;;;;12.15;5.70;;;-0.10;99.90;;;;;;4986344;28;20031;-59
2021/01/17 07:23:12;;;;;;;8.05;4.72;;;-0.10;99.90;;;;;;4988735;28;20030;-59
2021/01/17 07:25:40;;;;;;;10.98;5.20;;;-0.10;99.90;;;;;;4988097;28;20034;-57
2021/01/17 07:28:16;;;;;;;8.98;4.88;;;-0.10;99.90;;;;;;4987819;28;20066;-57
2021/01/17 07:31:18;;;;;;;14.73;6.07;;;0.00;99.90;;;;;;4993496;28;20045;-58
2021/01/17 07:33:46;;;;;;;14.82;6.60;;;0.00;99.90;;;;;;5001969;28;20026;-59
2021/01/17 07:36:18;;;;;;;15.85;7.05;;;0.10;99.90;;;;;;4986906;28;20037;-58
2021/01/17 07:38:54;;;;;;;13.23;6.63;;;0.10;99.90;;;;;;4985123;28;20042;-58
2021/01/17 07:41:32;;;;;;;12.15;6.90;;;0.10;99.90;;;;;;4985443;28;20484;-58
2021/01/17 07:43:59;;;;;;;16.15;6.50;;;0.20;99.90;;;;;;4985419;28;20062;-57
2021/01/17 07:46:31;;;;;;;15.05;6.53;;;0.20;99.90;;;;;;4989054;28;20085;-59
2021/01/17 07:49:00;;;;;;;14.80;6.70;;;0.20;99.90;;;;;;4987762;28;20037;-59
2021/01/17 07:51:26;;;;;;;12.02;6.47;;;0.20;99.90;;;;;;4985883;28;20050;-60
2021/01/17 07:54:00;;;;;;;11.50;5.10;;;0.30;99.90;;;;;;4985367;28;20030;-59
2021/01/17 07:56:32;;;;;;;12.60;4.47;;;0.30;99.50;;;;;;4987876;28;20081;-59
2021/01/17 07:59:03;;;;;;;12.43;4.55;;;0.30;99.10;;;;;;4989053;28;20056;-58
2021/01/17 08:01:34;;;;;;;9.35;4.65;;;0.30;98.60;;;;;;4986284;28;20045;-57
2021/01/17 08:04:07;;;;;;;9.40;4.85;;;0.30;99.10;;;;;;4987509;28;20031;-58
2021/01/17 08:06:36;;;;;;;9.07;4.65;;;0.40;98.40;;;;;;4987573;28;20042;-57
2021/01/17 08:09:08;;;;;;;8.68;4.43;;;0.30;98.50;;;;;;4987365;28;20041;-58
2021/01/17 08:11:49;;;;;;;11.95;4.65;;;0.40;97.60;;;;;;4987782;28;20331;-58
2021/01/17 08:14:30;;;;;;;11.32;5.40;;;0.40;97.90;;;;;;4969545;28;20089;-59
2021/01/17 08:17:18;;;;;;;12.38;5.95;;;0.50;97.70;;;;;;4973558;28;20199;-58
2021/01/17 08:19:53;;;;;;;14.65;6.50;;;0.50;97.90;;;;;;4979185;28;20064;-59
2021/01/17 08:22:19;;;;;;;12.25;6.10;;;0.60;97.70;;;;;;4980058;28;20125;-57
2021/01/17 08:24:45;;;;;;;12.35;6.53;;;0.70;97.40;;;;;;4975814;28;20522;-59
2021/01/17 08:27:31;;;;;;;13.65;6.22;;;0.70;97.40;;;;;;4988688;28;20026;-59
2021/01/17 08:30:03;;;;;;;11.48;6.10;;;0.80;96.50;;;;;;4979327;28;20118;-58
2021/01/17 08:32:45;;;;;;;11.60;6.20;;;0.80;97.30;;;;;;4980801;28;20543;-58
2021/01/17 08:35:20;;;;;;;13.20;5.72;;;0.80;96.50;;;;;;4975344;28;20082;-58
2021/01/17 08:37:51;;;;;;;9.50;5.97;;;0.90;96.60;;;;;;4978467;28;20462;-58
2021/01/17 08:40:28;;;;;;;11.43;6.35;;;0.90;95.40;;;;;;4990754;28;20037;-58
2021/01/17 08:42:56;;;;;;;12.77;6.25;;;0.90;95.20;;;;;;4997212;28;20042;-59
2021/01/17 08:45:22;;;;;;;12.25;6.53;;;1.00;95.50;;;;;;5008189;28;20034;-58
2021/01/17 08:47:52;;;;;;;12.30;5.80;;;1.00;94.50;;;;;;5006158;28;20497;-59
2021/01/17 08:50:27;;;;;;;10.60;6.28;;;1.10;94.60;;;;;;5006497;28;20041;-58
2021/01/17 08:53:05;;;;;;;11.60;5.57;;;1.10;93.90;;;;;;5007632;28;20042;-58
2021/01/17 08:55:47;;;;;;;11.70;6.10;;;1.10;94.50;;;;;;5010113;28;20371;-58
2021/01/17 08:58:25;;;;;;;11.75;6.22;;;1.10;94.40;;;;;;5011491;28;20029;-57
2021/01/17 09:00:51;;;;;;;14.05;6.40;;;1.20;93.90;;;;;;5006519;28;20038;-55
2021/01/17 09:03:26;;;;;;;13.75;6.30;;;1.30;94.50;;;;;;5009769;28;20504;-58
2021/01/17 09:05:58;;;;;;;12.77;6.18;;;1.30;93.60;;;;;;5007249;28;20069;-56
2021/01/17 09:08:24;;;;;;;10.80;5.32;;;1.30;93.30;;;;;;5010115;28;20029;-58
2021/01/17 09:10:50;;;;;;;12.95;6.00;;;1.30;93.90;;;;;;5011135;28;20172;-57
2021/01/17 09:13:20;;;;;;;14.15;7.07;;;1.40;94.10;;;;;;4993851;28;20151;-57
2021/01/17 09:16:06;;;;;;;13.38;6.13;;;1.40;92.90;;;;;;5012006;28;20188;-58
2021/01/17 09:18:37;;;;;;;13.90;6.20;;;1.50;93.30;;;;;;5011590;28;20065;-57
2021/01/17 09:21:08;;;;;;;13.13;6.03;;;1.60;94.10;;;;;;5010924;28;20122;-59
2021/01/17 09:23:38;;;;;;;9.23;5.65;;;1.60;92.80;;;;;;4999477;28;20030;-57
2021/01/17 09:26:05;;;;;;;14.38;6.80;;;1.70;92.30;;;;;;4990184;28;20033;-58
2021/01/17 09:28:32;;;;;;;12.38;6.80;;;1.70;91.20;;;;;;4991085;28;20034;-58
2021/01/17 09:30:59;;;;;;;13.85;5.82;;;1.70;92.40;;;;;;4991062;28;20515;-58
2021/01/17 09:33:27;;;;;;;12.38;6.60;;;1.80;91.70;;;;;;4991222;28;20038;-58
2021/01/17 09:35:53;;;;;;;10.90;5.20;;;1.70;91.30;;;;;;4990834;28;20034;-57
2021/01/17 09:38:23;;;;;;;11.75;5.20;;;1.70;91.40;;;;;;4991030;28;20398;-58
2021/01/17 09:40:52;;;;;;;15.65;5.90;;;1.70;91.00;;;;;;4990900;28;20034;-58
2021/01/17 09:43:18;;;;;;;11.32;5.70;;;1.70;91.30;;;;;;4990790;28;20527;-58
2021/01/17 09:45:55;;;;;;;11.82;5.28;;;1.70;91.20;;;;;;4991399;28;20093;-58
2021/01/17 09:48:22;;;;;;;13.10;5.13;;;1.70;91.70;;;;;;4990967;28;20082;-58
2021/01/17 09:50:50;;;;;;;8.88;5.10;;;1.70;90.50;;;;;;4991187;28;20041;-58
2021/01/17 09:53:16;;;;;;;9.45;5.05;;;1.70;91.00;;;;;;4991143;28;20034;-58
2021/01/17 09:55:45;;;;;;;10.20;5.05;;;1.80;90.40;;;;;;4990587;28;20070;-58
2021/01/17 09:58:12;;;;;;;10.52;5.55;;;1.90;90.90;;;;;;4990741;28;20034;-59
2021/01/17 10:00:39;;;;;;;10.48;5.13;;;1.90;90.40;;;;;;4990468;28;20443;-57
2021/01/17 10:03:15;;;;;;;12.05;6.35;;;2.00;90.80;;;;;;4990567;28;20030;-59
2021/01/17 10:05:43;;;;;;;10.20;5.53;;;2.00;90.10;;;;;;5003496;28;20047;-58
2021/01/17 10:08:13;;;;;;;10.00;5.38;;;2.10;90.50;;;;;;5002057;28;20041;-56
2021/01/17 10:10:48;;;;;;;11.90;5.45;;;2.10;90.90;;;;;;4976467;28;20026;-57
2021/01/17 10:13:14;;;;;;;10.82;5.68;;;2.20;90.60;;;;;;4989817;28;20423;-61
2021/01/17 10:15:40;;;;;;;10.75;4.88;;;2.30;90.30;;;;;;4990043;28;20139;-58
2021/01/17 10:18:07;;;;;;;9.05;5.40;;;2.40;90.30;;;;;;4990199;28;20041;-54
2021/01/17 10:20:37;;;;;;;13.50;6.30;;;2.40;89.40;;;;;;4990520;28;20096;-57
2021/01/17 10:23:08;;;;;;;10.75;4.97;;;2.50;88.00;;;;;;4990062;28;20046;-58
2021/01/17 10:25:35;;;;;;;10.48;5.15;;;2.50;89.10;;;;;;4990090;28;20509;-56
2021/01/17 10:28:04;;;;;;;7.68;4.38;;;2.50;88.40;;;;;;4990135;28;20545;-59
2021/01/17 10:30:32;;;;;;;16.63;4.57;;;2.50;87.50;;;;;;4989882;28;20437;-58
2021/01/17 10:33:05;;;;;;;9.65;5.07;;;2.70;87.30;;;;;;4990176;28;20076;-56
2021/01/17 10:35:36;;;;;;;10.45;5.60;;;2.80;87.60;;;;;;4990065;28;20054;-58
2021/01/17 10:38:07;;;;;;;15.80;6.22;;;2.70;84.30;;;;;;4990146;28;20089;-59
2021/01/17 10:40:34;;;;;;;12.48;6.18;;;2.70;85.60;;;;;;4972265;28;20058;-55
2021/01/17 10:43:03;;;;;;;12.32;5.22;;;2.70;83.30;;;;;;4989584;28;20095;-58
2021/01/17 10:45:30;;;;;;;10.40;5.93;;;2.70;85.30;;;;;;4990105;28;20368;-59
2021/01/17 10:48:06;;;;;;;11.77;5.22;;;2.80;84.20;;;;;;4989642;28;20042;-58
2021/01/17 10:50:41;;;;;;;8.65;5.28;;;2.80;84.10;;;;;;4989744;28;20403;-58
2021/01/17 10:53:14;;;;;;;6.85;3.90;;;2.80;85.00;;;;;;4989644;28;20557;-57
2021/01/17 10:55:44;;;;;;;11.27;5.15;;;2.80;85.60;;;;;;4989470;28;20053;-58
2021/01/17 10:58:17;;;;;;;10.27;5.85;;;2.90;84.40;;;;;;4971614;28;20050;-57
2021/01/17 11:00:52;;;;;;;10.90;6.30;;;2.90;85.30;;;;;;4989842;28;20447;-56
2021/01/17 11:03:29;;;;;;;9.67;5.90;;;2.80;82.40;;;;;;4989702;28;20044;-59
2021/01/17 11:06:14;;;;;;;10.95;5.97;;;2.80;83.70;;;;;;4989290;28;20042;-59
2021/01/17 11:08:50;;;;;;;7.30;4.80;;;2.80;84.10;;;;;;4995436;28;20408;-58
2021/01/17 11:11:17;;;;;;;;;;;2.90;84.70;;;;;;5006241;28;20041;-57
2021/01/17 11:13:43;;;;;;;10.07;5.20;;;2.90;83.10;;;;;;4996200;28;20017;-57
2021/01/17 11:16:09;;;;;;;11.48;5.38;;;2.80;86.70;;;;;;5003437;28;20119;-56
2021/01/17 11:18:38;;;;;;;10.77;5.82;;;2.90;84.10;;;;;;5009252;28;20034;-57
2021/01/17 11:21:05;;;;;;;17.00;6.20;;;2.90;85.40;;;;;;5009436;28;20052;-58
2021/01/17 11:23:31;;;;;;;10.43;5.25;;;3.10;85.00;;;;;;5009038;28;20045;-59
2021/01/17 11:25:58;;;;;;;11.82;5.75;;;3.20;83.90;;;;;;5008853;28;20066;-58
2021/01/17 11:28:28;;;;;;;12.45;6.50;;;3.10;84.80;;;;;;5007108;28;20057;-57
2021/01/17 11:30:54;;;;;;;13.27;5.90;;;3.10;84.00;;;;;;5007996;28;20025;-59
2021/01/17 11:33:27;;;;;;;9.88;5.72;;;3.20;82.60;;;;;;5005917;28;20509;-57
2021/01/17 11:36:00;;;;;;;15.80;6.85;;;3.30;83.80;;;;;;5006458;28;20056;-59
2021/01/17 11:38:45;;;;;;;16.27;5.80;;;3.30;82.30;;;;;;5005033;28;20145;-57
2021/01/17 11:41:12;;;;;;;13.13;5.22;;;3.40;81.80;;;;;;4988858;28;20105;-56
2021/01/17 11:43:38;;;;;;;10.13;5.53;;;3.40;82.10;;;;;;4989329;28;20064;-56
2021/01/17 11:46:09;;;;;;;9.75;5.35;;;3.50;81.10;;;;;;5008569;28;20053;-58
2021/01/17 11:48:36;;;;;;;10.23;4.93;;;3.50;82.10;;;;;;5005307;28;20117;-59
2021/01/17 11:51:03;;;;;;;14.77;5.53;;;3.60;81.30;;;;;;5012479;28;20041;-56
2021/01/17 11:53:30;;;;;;;11.07;5.28;;;3.60;79.80;;;;;;5010796;28;20040;-56
2021/01/17 11:55:56;;;;;;;9.32;5.22;;;3.70;81.10;;;;;;5004096;28;20041;-56
2021/01/17 11:58:26;;;;;;;13.25;5.68;;;3.70;78.60;;;;;;5008568;28;20442;-58
2021/01/17 12:00:54;;;;;;;8.15;4.82;;;3.80;80.20;;;;;;5008476;28;20046;-57
2021/01/17 12:03:41;;;;;;;7.95;4.97;;;3.80;78.70;;;;;;5007523;28;20033;-59
2021/01/17 12:06:28;;;;;;;8.50;4.68;;;3.80;81.50;;;;;;5008213;28;20076;-56
2021/01/17 12:08:53;;;;;;;;;;;3.80;79.70;;;;;;5008640;28;20030;-57
2021/01/17 12:11:46;;;;;;;12.07;5.60;;;3.80;79.70;;;;;;5011902;28;20281;-58
2021/01/17 12:14:22;;;;;;;10.18;5.50;;;3.90;82.10;;;;;;5005660;28;20128;-58
2021/01/17 12:16:48;;;;;;;;;;;3.80;81.00;;;;;;5001210;28;20022;-55
2021/01/17 12:19:15;;;;;;;12.27;6.50;;;3.90;80.50;;;;;;5012082;28;19936;-54
2021/01/17 12:21:45;;;;;;;10.20;5.70;;;3.90;79.90;;;;;;5011039;28;20781;-56
2021/01/17 12:24:13;;;;;;;7.88;4.10;;;4.00;80.80;;;;;;5011350;28;20037;-57
2021/01/17 12:26:40;;;;;;;11.00;4.93;;;3.90;79.30;;;;;;5011455;28;20067;-57
2021/01/17 12:29:07;;;;;;;9.73;4.97;;;4.00;79.90;;;;;;5011729;28;20105;-58
2021/01/17 12:31:34;;;;;;;7.40;4.65;;;4.00;81.00;;;;;;5011072;28;20037;-56
2021/01/17 12:34:00;;;;;;;6.47;3.90;;;4.00;81.30;;;;;;5010160;28;20041;-58
2021/01/17 12:36:28;;;;;;;7.20;4.15;;;4.00;82.40;;;;;;5013459;28;20057;-56
2021/01/17 12:38:55;;;;;;;7.05;4.10;;;4.10;80.90;;;;;;5010690;28;20152;-56
2021/01/17 12:41:24;;;;;;;7.93;4.13;;;4.10;81.00;;;;;;5011766;28;20114;-58
2021/01/17 12:43:50;;;;;;;9.73;4.63;;;4.10;79.40;;;;;;5010825;28;20312;-59
2021/01/17 12:46:18;;;;;;;9.20;4.43;;;4.20;79.20;;;;;;5009468;28;20095;-57
2021/01/17 12:48:44;;;;;;;14.63;6.00;;;4.10;79.40;;;;;;5008805;28;20064;-56
2021/01/17 12:51:10;;;;;;;11.95;5.60;;;4.10;79.40;;;;;;5011141;28;20063;-58
2021/01/17 12:53:37;;;;;;;10.52;5.53;;;4.10;78.70;;;;;;5009931;28;20042;-53
2021/01/17 12:56:04;;;;;;;9.90;5.00;;;4.10;80.10;;;;;;5011587;28;20077;-57
2021/01/17 12:58:30;;;;;;;7.47;3.53;;;4.20;78.40;;;;;;5010488;28;20100;-56
2021/01/17 13:00:56;;;;;;;8.82;4.22;;;4.10;78.30;;;;;;5010338;28;20054;-58
2021/01/17 13:03:22;;;;;;;8.35;4.45;;;4.20;80.10;;;;;;5011524;28;20026;-57
2021/01/17 13:05:53;;;;;;;8.27;4.68;;;4.20;79.60;;;;;;4994307;28;20401;-56